Terminal Aerodrome Forecast
Issued by NWS Charleston, WV

Current Version | Previous Version | Graphics & Text | Print | Product List | Glossary On
Versions: 1 2 3 4 5 6 7 8 9 10 11 12 13 14 15 16 17 18 19 20 21 22
000
FTUS41 KRLX 231733
TAFPKB
TAF
KPKB 231733Z 2318/2418 VRB04KT P6SM SCT150
     FM232000 VRB04KT P6SM BKN100
     FM232230 VRB04KT 5SM SHRA OVC040
     FM240400 VRB02KT 6SM BR BKN022
     FM241100 VRB03KT 3SM BR BKN016
     FM241600 12005KT 5SM SHRA BKN026=

USA.gov is the U.S. government's official web portal to all federal, state and local government web resources and services.